createdAt,value
2018-11-25T00:01:27.269Z,15.07
2018-11-25T00:03:57.267Z,9.73
2018-11-25T00:06:27.466Z,9.10
2018-11-25T00:08:57.921Z,9.00
2018-11-25T00:11:27.975Z,10.40
2018-11-25T00:13:57.964Z,10.47
2018-11-25T00:16:28.428Z,8.50
2018-11-25T00:18:58.389Z,9.90
2018-11-25T00:21:28.769Z,9.10
2018-11-25T00:23:58.733Z,7.63
2018-11-25T00:26:29.085Z,8.40
2018-11-25T00:28:59.322Z,9.33
2018-11-25T00:31:29.370Z,10.23
2018-11-25T00:33:59.420Z,9.67
2018-11-25T00:36:29.578Z,8.50
2018-11-25T00:38:59.700Z,8.83
2018-11-25T00:41:29.835Z,8.90
2018-11-25T00:43:59.615Z,7.90
2018-11-25T00:46:29.797Z,9.40
2018-11-25T00:48:59.885Z,9.43
2018-11-25T00:51:30.055Z,9.10
2018-11-25T00:53:59.948Z,9.10
2018-11-25T00:56:30.228Z,8.90
2018-11-25T00:59:00.288Z,8.60
2018-11-25T01:01:32.877Z,10.30
2018-11-25T01:04:02.995Z,13.00
2018-11-25T01:06:33.039Z,23.33
2018-11-25T01:09:03.476Z,26.43
2018-11-25T01:11:33.609Z,16.90
2018-11-25T01:14:03.823Z,10.43
2018-11-25T01:16:34.232Z,9.37
2018-11-25T01:19:04.658Z,8.17
2018-11-25T01:21:34.449Z,9.53
2018-11-25T01:24:04.628Z,12.17
2018-11-25T01:26:34.771Z,28.23
2018-11-25T01:29:05.234Z,25.90
2018-11-25T01:31:35.269Z,18.00
2018-11-25T01:34:05.138Z,12.70
2018-11-25T01:36:35.253Z,12.80
2018-11-25T01:39:06.287Z,10.77
2018-11-25T01:41:36.411Z,10.77
2018-11-25T01:44:06.739Z,11.43
2018-11-25T01:46:36.832Z,9.90
2018-11-25T01:49:06.770Z,10.73
2018-11-25T01:51:37.219Z,10.83
2018-11-25T01:54:07.307Z,9.50
2018-11-25T01:56:37.473Z,8.20
2018-11-25T01:59:07.581Z,8.40
2018-11-25T02:01:38.394Z,7.60
2018-11-25T02:04:08.618Z,8.90
2018-11-25T02:06:38.872Z,9.60
2018-11-25T02:09:09.475Z,9.13
2018-11-25T02:11:39.571Z,8.43
2018-11-25T02:14:09.576Z,7.20
2018-11-25T02:16:39.963Z,9.33
2018-11-25T02:19:10.299Z,11.07
2018-11-25T02:21:40.625Z,10.53
2018-11-25T02:24:10.527Z,12.50
2018-11-25T02:26:40.826Z,13.97
2018-11-25T02:29:10.889Z,13.03
2018-11-25T02:31:41.036Z,13.70
2018-11-25T02:34:10.944Z,14.03
2018-11-25T02:36:41.059Z,12.43
2018-11-25T02:39:11.129Z,12.20
2018-11-25T02:41:41.375Z,13.03
2018-11-25T02:44:10.883Z,13.17
2018-11-25T02:46:40.186Z,8.60
2018-11-25T02:49:10.165Z,10.27
2018-11-25T02:51:40.549Z,9.80
2018-11-25T02:54:11.000Z,12.57
2018-11-25T02:56:41.253Z,10.50
2018-11-25T02:59:11.370Z,11.30
2018-11-25T03:01:41.406Z,9.57
2018-11-25T03:04:11.340Z,10.57
2018-11-25T03:06:41.307Z,10.00
2018-11-25T03:09:11.407Z,12.93
2018-11-25T03:11:41.696Z,9.87
2018-11-25T03:14:11.596Z,11.43
2018-11-25T03:16:42.590Z,12.90
2018-11-25T03:19:12.483Z,10.50
2018-11-25T03:21:42.759Z,8.73
2018-11-25T03:24:12.862Z,9.70
2018-11-25T03:26:42.850Z,9.90
2018-11-25T03:29:12.816Z,10.20
2018-11-25T03:31:42.948Z,11.60
2018-11-25T03:34:13.259Z,9.30
2018-11-25T03:36:43.244Z,12.70
2018-11-25T03:39:13.279Z,10.87
2018-11-25T03:41:43.242Z,13.90
2018-11-25T03:44:13.649Z,13.00
2018-11-25T03:46:43.745Z,12.30
2018-11-25T03:49:13.865Z,10.03
2018-11-25T03:51:44.057Z,8.80
2018-11-25T03:54:14.306Z,10.33
2018-11-25T03:56:44.427Z,8.00
2018-11-25T03:59:14.561Z,8.40
2018-11-25T04:01:44.671Z,7.70
2018-11-25T04:04:14.559Z,8.43
2018-11-25T04:06:44.698Z,12.07
2018-11-25T04:09:14.770Z,9.40
2018-11-25T04:11:44.831Z,10.27
2018-11-25T04:14:14.788Z,11.10
2018-11-25T04:16:44.876Z,13.97
2018-11-25T04:19:14.833Z,13.60
2018-11-25T04:21:45.147Z,15.50
2018-11-25T04:24:15.405Z,14.10
2018-11-25T04:26:45.541Z,19.17
2018-11-25T04:29:15.505Z,18.40
2018-11-25T04:31:45.555Z,17.60
2018-11-25T04:34:15.560Z,22.27
2018-11-25T04:36:45.585Z,16.83
2018-11-25T04:39:15.986Z,20.10
2018-11-25T04:41:46.141Z,22.30
2018-11-25T04:44:16.096Z,21.07
2018-11-25T04:46:46.248Z,21.47
2018-11-25T04:49:16.415Z,22.40
2018-11-25T04:51:46.619Z,31.30
2018-11-25T04:54:16.735Z,47.37
2018-11-25T04:56:47.028Z,28.67
2018-11-25T04:59:17.213Z,49.70
2018-11-25T05:01:47.325Z,29.57
2018-11-25T05:04:17.301Z,38.10
2018-11-25T05:06:47.492Z,47.40
2018-11-25T05:09:17.602Z,42.77
2018-11-25T05:11:47.749Z,47.73
2018-11-25T05:14:17.726Z,46.80
2018-11-25T05:16:48.135Z,34.90
2018-11-25T05:19:18.187Z,51.87
2018-11-25T05:21:48.256Z,50.93
2018-11-25T05:24:18.236Z,42.07
2018-11-25T05:26:48.359Z,38.43
2018-11-25T05:29:18.933Z,40.63
2018-11-25T05:31:50.141Z,22.00
2018-11-25T05:34:20.284Z,23.93
2018-11-25T05:36:50.350Z,26.53
2018-11-25T05:39:20.388Z,30.60
2018-11-25T05:41:50.462Z,29.10
2018-11-25T05:44:20.457Z,32.50
2018-11-25T05:46:50.559Z,49.97
2018-11-25T05:49:20.883Z,32.90
2018-11-25T05:51:51.954Z,48.07
2018-11-25T05:54:22.220Z,34.37
2018-11-25T05:56:52.247Z,53.00
2018-11-25T05:59:22.245Z,46.17
2018-11-25T06:01:52.409Z,36.90
2018-11-25T06:04:22.505Z,30.40
2018-11-25T06:06:52.524Z,41.53
2018-11-25T06:09:22.660Z,26.90
2018-11-25T06:11:52.861Z,33.03
2018-11-25T06:14:22.777Z,33.10
2018-11-25T06:16:54.288Z,25.67
2018-11-25T06:19:23.576Z,30.23
2018-11-25T06:21:53.747Z,28.47
2018-11-25T06:24:23.883Z,32.40
2018-11-25T06:26:54.111Z,25.07
2018-11-25T06:29:24.065Z,19.90
2018-11-25T06:31:54.182Z,15.20
2018-11-25T06:34:24.446Z,13.93
2018-11-25T06:36:54.678Z,15.90
2018-11-25T06:39:24.846Z,16.80
2018-11-25T06:41:55.166Z,13.00
2018-11-25T06:44:25.256Z,12.87
2018-11-25T06:46:55.477Z,10.93
2018-11-25T06:49:25.487Z,11.13
2018-11-25T06:51:55.651Z,15.07
2018-11-25T06:54:25.644Z,20.03
2018-11-25T06:56:56.858Z,24.33
2018-11-25T06:59:26.199Z,34.87
2018-11-25T07:01:56.701Z,40.00
2018-11-25T07:04:26.478Z,36.77
2018-11-25T07:06:56.723Z,34.93
2018-11-25T07:09:26.795Z,33.67
2018-11-25T07:11:56.796Z,34.43
2018-11-25T07:14:26.809Z,29.30
2018-11-25T07:16:57.251Z,25.00
2018-11-25T07:19:27.056Z,24.00
2018-11-25T07:21:56.792Z,18.90
2018-11-25T07:24:26.913Z,19.47
2018-11-25T07:26:57.270Z,16.93
2018-11-25T07:29:27.572Z,14.77
2018-11-25T07:31:57.399Z,14.50
2018-11-25T07:34:28.260Z,14.97
2018-11-25T07:36:58.585Z,14.33
2018-11-25T07:39:29.131Z,16.30
2018-11-25T07:41:59.445Z,19.77
2018-11-25T07:44:29.774Z,18.27
2018-11-25T07:46:59.769Z,20.33
2018-11-25T07:49:30.244Z,18.50
2018-11-25T07:52:00.517Z,18.00
2018-11-25T07:54:31.128Z,18.60
2018-11-25T07:57:02.136Z,15.57
2018-11-25T07:59:32.529Z,18.10
2018-11-25T08:02:02.543Z,19.73
2018-11-25T08:04:32.662Z,16.77
2018-11-25T08:07:02.970Z,18.70
2018-11-25T08:09:33.022Z,22.80
2018-11-25T08:12:04.010Z,19.10
2018-11-25T08:14:34.130Z,15.30
2018-11-25T08:17:04.612Z,12.57
2018-11-25T08:19:34.539Z,9.27
2018-11-25T08:22:05.828Z,9.03
2018-11-25T08:24:36.014Z,8.43
2018-11-25T08:27:06.341Z,8.77
2018-11-25T08:29:36.479Z,7.90
2018-11-25T08:32:06.803Z,7.57
2018-11-25T08:34:36.904Z,9.87
2018-11-25T08:37:07.055Z,8.23
2018-11-25T08:39:37.538Z,10.00
2018-11-25T08:42:07.942Z,9.87
2018-11-25T08:44:38.152Z,9.83
2018-11-25T08:47:08.460Z,9.00
2018-11-25T08:49:38.776Z,7.80
2018-11-25T08:52:08.812Z,8.07
2018-11-25T08:54:38.976Z,8.23
2018-11-25T08:57:09.137Z,7.17
2018-11-25T08:59:39.193Z,10.03
2018-11-25T09:02:09.612Z,13.80
2018-11-25T09:04:40.128Z,6.40
2018-11-25T09:07:10.217Z,7.03
2018-11-25T09:09:40.652Z,19.97
2018-11-25T09:12:10.781Z,8.53
2018-11-25T09:14:41.029Z,9.33
2018-11-25T09:17:11.391Z,8.17
2018-11-25T09:19:42.775Z,9.60
2018-11-25T09:22:12.849Z,8.97
2018-11-25T09:24:42.980Z,8.73
2018-11-25T09:27:13.105Z,9.17
2018-11-25T09:29:43.435Z,8.63
2018-11-25T09:32:13.548Z,8.00
2018-11-25T09:34:43.900Z,7.40
2018-11-25T09:37:13.733Z,7.40
2018-11-25T09:39:43.755Z,8.30
2018-11-25T09:42:14.248Z,8.03
2018-11-25T09:44:44.412Z,6.37
2018-11-25T09:47:14.953Z,6.87
2018-11-25T09:49:45.508Z,8.07
2018-11-25T09:52:15.609Z,8.53
2018-11-25T09:54:45.749Z,8.40
2018-11-25T09:57:16.471Z,8.73
2018-11-25T09:59:46.378Z,8.97
2018-11-25T10:02:16.327Z,8.20
2018-11-25T10:04:46.528Z,7.50
2018-11-25T10:07:16.695Z,6.23
2018-11-25T10:09:46.681Z,7.03
2018-11-25T10:12:16.751Z,7.00
2018-11-25T10:14:47.236Z,8.00
2018-11-25T10:17:17.714Z,8.13
2018-11-25T10:19:47.278Z,6.80
2018-11-25T10:22:17.052Z,8.50
2018-11-25T10:24:46.861Z,7.93
2018-11-25T10:27:16.361Z,6.70
2018-11-25T10:29:46.080Z,10.33
2018-11-25T10:32:15.715Z,15.70
2018-11-25T10:34:45.632Z,6.77
2018-11-25T10:37:14.970Z,7.50
2018-11-25T10:39:44.261Z,9.17
2018-11-25T10:42:14.631Z,9.13
2018-11-25T10:44:45.055Z,8.87
2018-11-25T10:47:15.026Z,9.50
2018-11-25T10:49:45.197Z,10.30
2018-11-25T10:52:15.325Z,12.87
2018-11-25T10:54:45.594Z,11.47
2018-11-25T10:57:15.688Z,10.40
2018-11-25T10:59:45.820Z,11.10
2018-11-25T11:02:20.913Z,10.10
2018-11-25T11:04:56.130Z,10.63
2018-11-25T11:07:31.378Z,9.70
2018-11-25T11:10:01.812Z,13.20
2018-11-25T11:12:32.224Z,11.93
2018-11-25T11:15:03.234Z,10.27
2018-11-25T11:17:34.582Z,10.93
2018-11-25T11:20:06.053Z,12.43
2018-11-25T11:22:36.069Z,11.17
2018-11-25T11:25:06.840Z,13.33
2018-11-25T11:27:37.352Z,11.63
2018-11-25T11:30:10.434Z,10.80
2018-11-25T11:32:43.139Z,11.27
2018-11-25T11:35:13.681Z,12.80
2018-11-25T11:37:43.828Z,12.67
2018-11-25T11:40:14.606Z,14.00
2018-11-25T11:42:44.553Z,13.40
2018-11-25T11:45:16.189Z,12.07
2018-11-25T11:47:46.492Z,12.37
2018-11-25T11:50:23.326Z,12.60
2018-11-25T11:52:53.476Z,13.20
2018-11-25T11:55:23.549Z,13.90
2018-11-25T11:57:53.516Z,12.63
2018-11-25T12:00:30.999Z,15.00
2018-11-25T12:03:02.388Z,14.50
2018-11-25T12:05:32.623Z,13.87
2018-11-25T12:08:03.664Z,14.67
2018-11-25T12:10:33.889Z,16.23
2018-11-25T12:13:04.550Z,16.37
2018-11-25T12:15:34.888Z,18.17
2018-11-25T12:18:05.648Z,16.30
2018-11-25T12:20:35.908Z,18.23
2018-11-25T12:23:06.767Z,16.80
2018-11-25T12:25:37.291Z,14.70
2018-11-25T12:28:07.912Z,18.10
2018-11-25T12:30:38.551Z,17.43
2018-11-25T12:33:08.990Z,14.60
2018-11-25T12:35:39.152Z,16.43
2018-11-25T12:38:09.548Z,16.37
2018-11-25T12:40:40.532Z,16.47
2018-11-25T12:43:10.740Z,16.90
2018-11-25T12:45:40.953Z,17.27
2018-11-25T12:48:11.377Z,14.37
2018-11-25T12:50:41.436Z,37.80
2018-11-25T12:53:12.227Z,17.53
2018-11-25T12:55:42.508Z,16.77
2018-11-25T12:58:12.921Z,16.53
2018-11-25T13:00:43.993Z,16.20
2018-11-25T13:03:14.394Z,16.87
2018-11-25T13:05:46.289Z,16.30
2018-11-25T13:08:15.258Z,16.43
2018-11-25T13:10:45.363Z,17.00
2018-11-25T13:13:15.630Z,15.97
2018-11-25T13:15:45.956Z,17.00
2018-11-25T13:18:16.294Z,18.07
2018-11-25T13:20:46.585Z,15.57
2018-11-25T13:23:16.900Z,18.13
2018-11-25T13:25:47.207Z,17.90
2018-11-25T13:28:17.193Z,15.80
2018-11-25T13:30:47.300Z,14.87
2018-11-25T13:33:17.616Z,20.70
2018-11-25T13:35:47.687Z,26.70
2018-11-25T13:38:17.901Z,22.53
2018-11-25T13:40:49.523Z,21.10
2018-11-25T13:43:19.004Z,21.20
2018-11-25T13:45:49.224Z,17.13
2018-11-25T13:48:19.453Z,16.23
2018-11-25T13:50:49.596Z,14.60
2018-11-25T13:53:19.919Z,14.93
2018-11-25T13:55:50.375Z,14.47
2018-11-25T13:58:21.445Z,15.80
2018-11-25T14:00:52.807Z,14.37
2018-11-25T14:03:30.384Z,14.50
2018-11-25T14:06:00.330Z,15.47
2018-11-25T14:08:30.793Z,13.20
2018-11-25T14:11:10.858Z,14.80
2018-11-25T14:13:41.170Z,14.27
2018-11-25T14:16:16.397Z,14.67
2018-11-25T14:18:46.986Z,13.20
2018-11-25T14:21:17.253Z,13.67
2018-11-25T14:23:47.268Z,13.87
2018-11-25T14:26:23.580Z,12.83
2018-11-25T14:28:53.730Z,14.87
2018-11-25T14:31:24.380Z,14.60
2018-11-25T14:33:54.810Z,14.53
2018-11-25T14:36:25.001Z,13.67
2018-11-25T14:38:55.336Z,16.43
2018-11-25T14:41:25.569Z,14.43
2018-11-25T14:43:56.179Z,15.50
2018-11-25T14:46:26.138Z,14.03
2018-11-25T14:48:56.514Z,14.20
2018-11-25T14:51:26.796Z,19.30
2018-11-25T14:53:57.152Z,16.53
2018-11-25T14:56:27.137Z,17.13
2018-11-25T14:58:57.522Z,15.40
2018-11-25T15:01:27.776Z,14.27
2018-11-25T15:03:58.723Z,15.03
2018-11-25T15:06:29.607Z,14.90
2018-11-25T15:08:59.233Z,14.30
2018-11-25T15:11:29.615Z,14.23
2018-11-25T15:13:59.712Z,16.60
2018-11-25T15:16:30.076Z,15.77
2018-11-25T15:19:00.799Z,14.23
2018-11-25T15:21:31.089Z,13.23
2018-11-25T15:24:01.511Z,15.30
2018-11-25T15:26:31.642Z,16.00
2018-11-25T15:29:01.703Z,15.97
2018-11-25T15:31:31.869Z,18.30
2018-11-25T15:34:01.955Z,14.23
2018-11-25T15:36:32.271Z,18.00
2018-11-25T15:39:02.495Z,16.70
2018-11-25T15:41:32.684Z,17.43
2018-11-25T15:44:02.897Z,15.37
2018-11-25T15:46:32.888Z,15.10
2018-11-25T15:49:02.861Z,15.67
2018-11-25T15:51:33.265Z,17.47
2018-11-25T15:54:03.971Z,17.20
2018-11-25T15:56:34.380Z,17.47
2018-11-25T15:59:04.748Z,17.20
2018-11-25T16:01:34.971Z,17.57
2018-11-25T16:04:05.068Z,17.50
2018-11-25T16:06:36.710Z,18.33
2018-11-25T16:09:08.649Z,20.43
2018-11-25T16:11:39.034Z,23.87
2018-11-25T16:14:10.455Z,20.13
2018-11-25T16:16:40.807Z,28.13
2018-11-25T16:19:11.208Z,17.70
2018-11-25T16:21:41.534Z,15.70
2018-11-25T16:24:11.888Z,15.23
2018-11-25T16:26:42.973Z,14.80
2018-11-25T16:29:15.783Z,14.80
2018-11-25T16:31:46.048Z,14.63
2018-11-25T16:34:16.121Z,14.10
2018-11-25T16:36:46.389Z,11.90
2018-11-25T16:39:16.627Z,12.90
2018-11-25T16:41:46.914Z,12.00
2018-11-25T16:44:17.359Z,12.67
2018-11-25T16:46:47.937Z,12.20
2018-11-25T16:49:18.178Z,12.90
2018-11-25T16:51:48.228Z,13.63
2018-11-25T16:54:18.413Z,13.00
2018-11-25T16:56:48.361Z,13.20
2018-11-25T16:59:18.365Z,12.60
2018-11-25T17:01:48.434Z,14.47
2018-11-25T17:04:18.506Z,13.20
2018-11-25T17:06:50.319Z,13.17
2018-11-25T17:09:20.398Z,13.43
2018-11-25T17:11:51.055Z,13.93
2018-11-25T17:14:21.766Z,13.80
2018-11-25T17:16:52.725Z,16.20
2018-11-25T17:19:23.481Z,15.77
2018-11-25T17:21:54.259Z,17.50
2018-11-25T17:24:25.902Z,17.93
2018-11-25T17:26:57.417Z,13.47
2018-11-25T17:29:28.364Z,11.93
2018-11-25T17:31:58.941Z,11.60
2018-11-25T17:34:29.808Z,12.40
2018-11-25T17:37:01.209Z,12.50
2018-11-25T17:39:32.304Z,13.13
2018-11-25T17:42:03.305Z,12.47
2018-11-25T17:44:34.487Z,10.90
2018-11-25T17:47:06.477Z,13.10
2018-11-25T17:49:36.950Z,11.50
2018-11-25T17:52:07.141Z,12.33
2018-11-25T17:54:37.295Z,13.00
2018-11-25T17:57:07.476Z,12.90
2018-11-25T17:59:37.871Z,15.33
2018-11-25T18:02:08.307Z,12.67
2018-11-25T18:04:38.513Z,14.33
2018-11-25T18:07:08.800Z,15.40
2018-11-25T18:09:39.212Z,15.57
2018-11-25T18:12:09.574Z,14.13
2018-11-25T18:14:39.811Z,13.30
2018-11-25T18:17:10.064Z,13.40
2018-11-25T18:19:40.510Z,13.77
2018-11-25T18:22:14.437Z,13.07
2018-11-25T18:24:44.714Z,14.00
2018-11-25T18:27:14.685Z,13.67
2018-11-25T18:29:44.981Z,14.20
2018-11-25T18:32:15.307Z,13.60
2018-11-25T18:34:45.434Z,11.60
2018-11-25T18:37:16.009Z,15.23
2018-11-25T18:39:46.323Z,14.53
2018-11-25T18:42:16.446Z,13.30
2018-11-25T18:44:46.867Z,12.20
2018-11-25T18:47:17.252Z,14.00
2018-11-25T18:49:47.872Z,13.30
2018-11-25T18:52:18.427Z,13.83
2018-11-25T18:54:48.904Z,13.77
2018-11-25T18:57:19.479Z,13.03
2018-11-25T18:59:50.159Z,13.70
2018-11-25T19:02:25.935Z,15.33
2018-11-25T19:04:56.567Z,16.23
2018-11-25T19:07:26.584Z,16.17
2018-11-25T19:09:56.880Z,13.90
2018-11-25T19:12:27.021Z,16.93
2018-11-25T19:14:58.960Z,14.67
2018-11-25T19:17:29.876Z,15.93
2018-11-25T19:20:01.115Z,13.70
2018-11-25T19:22:31.940Z,14.53
2018-11-25T19:25:03.503Z,12.53
2018-11-25T19:27:34.579Z,14.57
2018-11-25T19:30:06.678Z,14.80
2018-11-25T19:32:37.349Z,15.60
2018-11-25T19:35:09.721Z,14.33
2018-11-25T19:37:40.118Z,14.63
2018-11-25T19:40:12.590Z,14.37
2018-11-25T19:42:43.066Z,14.67
2018-11-25T19:45:19.981Z,14.97
2018-11-25T19:47:51.288Z,14.73
2018-11-25T19:50:28.495Z,14.50
2018-11-25T19:52:58.836Z,16.37
2018-11-25T19:55:29.879Z,15.60
2018-11-25T19:58:00.038Z,16.43
2018-11-25T20:00:31.232Z,14.10
2018-11-25T20:03:02.441Z,15.30
2018-11-25T20:05:32.768Z,15.90
2018-11-25T20:08:03.013Z,17.77
2018-11-25T20:10:33.280Z,16.50
2018-11-25T20:13:04.057Z,17.17
2018-11-25T20:15:34.466Z,15.60
2018-11-25T20:18:04.676Z,12.30
2018-11-25T20:20:34.726Z,11.63
2018-11-25T20:23:05.287Z,15.37
2018-11-25T20:25:38.701Z,18.27
2018-11-25T20:28:09.575Z,21.53
2018-11-25T20:30:40.684Z,20.57
2018-11-25T20:33:16.875Z,18.57
2018-11-25T20:35:47.374Z,17.10
2018-11-25T20:38:22.966Z,19.17
2018-11-25T20:40:53.531Z,18.53
2018-11-25T20:43:23.898Z,20.20
2018-11-25T20:45:59.443Z,18.57
2018-11-25T20:48:29.951Z,18.93
2018-11-25T20:51:00.828Z,17.57
2018-11-25T20:53:37.182Z,18.37
2018-11-25T20:56:07.452Z,16.80
2018-11-25T20:58:38.182Z,17.67
2018-11-25T21:01:08.845Z,19.40
2018-11-25T21:03:38.997Z,17.83
2018-11-25T21:06:09.711Z,19.30
2018-11-25T21:08:40.163Z,15.33
2018-11-25T21:11:10.518Z,15.23
2018-11-25T21:13:40.892Z,14.87
2018-11-25T21:16:11.936Z,15.47
2018-11-25T21:18:42.334Z,13.00
2018-11-25T21:21:12.800Z,15.47
2018-11-25T21:23:43.073Z,14.80
2018-11-25T21:26:13.292Z,14.27
2018-11-25T21:28:43.849Z,16.87
2018-11-25T21:31:13.880Z,26.07
2018-11-25T21:33:44.001Z,19.37
2018-11-25T21:36:14.025Z,21.03
2018-11-25T21:38:44.131Z,17.20
2018-11-25T21:41:14.235Z,14.90
2018-11-25T21:43:44.970Z,16.57
2018-11-25T21:46:15.200Z,14.63
2018-11-25T21:48:45.203Z,15.40
2018-11-25T21:51:15.324Z,16.60
2018-11-25T21:53:45.976Z,15.30
2018-11-25T21:56:16.571Z,16.60
2018-11-25T21:58:46.662Z,16.20
2018-11-25T22:01:16.823Z,14.33
2018-11-25T22:03:46.916Z,13.90
2018-11-25T22:06:16.943Z,15.00
2018-11-25T22:08:47.226Z,14.07
2018-11-25T22:11:17.505Z,14.80
2018-11-25T22:13:48.202Z,13.80
2018-11-25T22:16:18.224Z,12.00
2018-11-25T22:18:48.782Z,12.67
2018-11-25T22:21:18.965Z,14.97
2018-11-25T22:23:49.774Z,12.40
2018-11-25T22:26:19.923Z,13.83
2018-11-25T22:28:50.048Z,14.53
2018-11-25T22:31:20.255Z,13.90
2018-11-25T22:33:50.393Z,14.43
2018-11-25T22:36:21.061Z,14.10
2018-11-25T22:38:51.386Z,14.03
2018-11-25T22:41:21.586Z,15.43
2018-11-25T22:43:51.528Z,13.43
2018-11-25T22:46:21.542Z,13.43
2018-11-25T22:48:51.783Z,14.30
2018-11-25T22:51:22.055Z,14.13
2018-11-25T22:53:51.959Z,14.97
2018-11-25T22:56:22.192Z,13.03
2018-11-25T22:58:52.225Z,13.47
2018-11-25T23:01:22.382Z,13.70
2018-11-25T23:04:03.170Z,13.80
2018-11-25T23:06:43.866Z,14.00
2018-11-25T23:09:14.023Z,14.00
2018-11-25T23:11:44.089Z,14.90
2018-11-25T23:14:14.115Z,14.23
2018-11-25T23:16:44.186Z,16.20
2018-11-25T23:19:14.371Z,16.90
2018-11-25T23:21:44.505Z,13.57
2018-11-25T23:24:14.738Z,14.70
2018-11-25T23:26:44.877Z,15.07
2018-11-25T23:29:14.950Z,14.43
2018-11-25T23:31:45.216Z,14.20
2018-11-25T23:34:15.403Z,15.23
2018-11-25T23:36:45.469Z,14.97
2018-11-25T23:39:15.742Z,14.20
2018-11-25T23:41:45.776Z,13.50
2018-11-25T23:44:15.977Z,14.83
2018-11-25T23:46:46.018Z,13.37
2018-11-25T23:49:16.198Z,12.30
2018-11-25T23:51:46.555Z,13.83
2018-11-25T23:54:16.684Z,13.13
2018-11-25T23:56:46.787Z,14.10
2018-11-25T23:59:17.075Z,14.20
